Time,TemperatureF,DewpointF,PressureIn,WindDirection,WindDirectionDegrees,WindSpeedMPH,WindSpeedGustMPH,Humidity,HourlyPrecipIn,Conditions,Clouds,dailyrainin,SoftwareType,DateUTC
2013-02-11 00:00:00,15.2,7.2,30.31,ESE,121,0.0,12.0,70,0.00,,,0.17,Wunderground v.1.15,2013-02-11 05:00:00,
2013-02-11 00:10:00,15.5,7.8,30.31,ESE,121,0.0,12.0,71,0.00,,,0.00,Wunderground v.1.15,2013-02-11 05:10:00,
2013-02-11 00:20:00,15.4,8.0,30.31,ESE,121,0.0,12.0,72,0.00,,,0.00,Wunderground v.1.15,2013-02-11 05:20:00,
2013-02-11 00:25:00,15.4,8.3,30.31,ESE,121,0.0,12.0,73,0.00,,,0.00,Wunderground v.1.15,2013-02-11 05:25:00,
2013-02-11 00:30:00,15.4,8.3,30.31,ESE,121,0.0,12.0,73,0.00,,,0.00,Wunderground v.1.15,2013-02-11 05:30:00,
2013-02-11 00:40:00,15.2,8.4,30.31,ESE,121,0.0,12.0,74,0.00,,,0.00,Wunderground v.1.15,2013-02-11 05:40:00,
2013-02-11 00:50:00,15.0,8.5,30.30,ESE,121,0.0,12.0,75,0.00,,,0.00,Wunderground v.1.15,2013-02-11 05:50:00,
2013-02-11 00:55:00,15.1,8.3,30.30,ESE,121,0.0,12.0,74,0.00,,,0.00,Wunderground v.1.15,2013-02-11 05:55:00,
2013-02-11 01:05:00,15.8,8.7,30.29,ESE,121,0.0,12.0,73,0.00,,,0.00,Wunderground v.1.15,2013-02-11 06:05:00,
2013-02-11 01:10:00,15.9,8.8,30.29,ESE,121,0.0,12.0,73,0.00,,,0.00,Wunderground v.1.15,2013-02-11 06:10:00,
2013-02-11 01:20:00,15.8,9.0,30.28,ESE,121,0.0,12.0,74,0.00,,,0.00,Wunderground v.1.15,2013-02-11 06:20:00,
2013-02-11 01:30:00,15.7,8.9,30.28,ESE,121,0.0,12.0,74,0.00,,,0.00,Wunderground v.1.15,2013-02-11 06:30:00,
2013-02-11 01:40:00,16.2,9.1,30.28,ESE,121,0.0,12.0,73,0.00,,,0.00,Wunderground v.1.15,2013-02-11 06:40:00,
2013-02-11 01:45:00,16.3,9.2,30.27,ESE,121,0.0,12.0,73,0.00,,,0.00,Wunderground v.1.15,2013-02-11 06:45:00,
2013-02-11 01:55:00,16.0,9.5,30.27,ESE,121,0.0,12.0,75,0.00,,,0.00,Wunderground v.1.15,2013-02-11 06:55:00,
2013-02-11 02:00:00,15.8,9.6,30.27,ESE,121,0.0,12.0,76,0.00,,,0.00,Wunderground v.1.15,2013-02-11 07:00:00,
2013-02-11 02:10:00,15.7,9.5,30.26,ESE,121,0.0,12.0,76,0.00,,,0.00,Wunderground v.1.15,2013-02-11 07:10:00,
2013-02-11 02:20:00,15.9,9.4,30.26,ESE,121,0.0,12.0,75,0.00,,,0.00,Wunderground v.1.15,2013-02-11 07:20:00,
2013-02-11 02:30:00,15.9,10.0,30.26,ESE,121,0.0,12.0,77,0.00,,,0.00,Wunderground v.1.15,2013-02-11 07:30:00,
2013-02-11 02:40:00,15.7,10.1,30.25,ESE,121,0.0,12.0,78,0.00,,,0.00,Wunderground v.1.15,2013-02-11 07:40:00,
2013-02-11 02:50:00,15.4,10.1,30.25,ESE,121,0.0,12.0,79,0.00,,,0.00,Wunderground v.1.15,2013-02-11 07:50:00,
2013-02-11 03:00:00,15.4,10.3,30.25,ESE,121,0.0,0.0,80,0.00,,,0.00,Wunderground v.1.15,2013-02-11 08:00:00,
2013-02-11 03:10:00,15.7,10.3,30.25,ESE,121,0.0,0.0,79,0.00,,,0.00,Wunderground v.1.15,2013-02-11 08:10:00,
2013-02-11 03:20:00,15.8,10.7,30.25,ESE,121,0.0,0.0,80,0.00,,,0.00,Wunderground v.1.15,2013-02-11 08:20:00,
2013-02-11 03:25:00,16.0,10.9,30.25,ESE,121,0.0,0.0,80,0.00,,,0.00,Wunderground v.1.15,2013-02-11 08:25:00,
2013-02-11 03:35:00,16.3,11.2,30.24,ESE,121,0.0,0.0,80,0.00,,,0.00,Wunderground v.1.15,2013-02-11 08:35:00,
2013-02-11 03:45:00,16.6,11.5,30.24,ESE,121,0.0,0.0,80,0.00,,,0.00,Wunderground v.1.15,2013-02-11 08:45:00,
2013-02-11 03:50:00,16.8,11.1,30.24,ESE,121,0.0,0.0,78,0.00,,,0.00,Wunderground v.1.15,2013-02-11 08:50:00,
2013-02-11 03:55:00,17.1,11.1,30.24,ESE,121,0.0,0.0,77,0.00,,,0.00,Wunderground v.1.15,2013-02-11 08:55:00,
2013-02-11 04:05:00,17.3,11.6,30.24,ESE,121,0.0,0.0,78,0.00,,,0.00,Wunderground v.1.15,2013-02-11 09:05:00,
2013-02-11 04:15:00,17.3,11.6,30.23,ESE,121,0.0,0.0,78,0.00,,,0.00,Wunderground v.1.15,2013-02-11 09:15:00,
2013-02-11 04:20:00,17.4,11.4,30.23,ESE,121,0.0,0.0,77,0.00,,,0.00,Wunderground v.1.15,2013-02-11 09:20:00,
2013-02-11 04:30:00,17.3,11.6,30.22,ESE,121,0.0,0.0,78,0.00,,,0.00,Wunderground v.1.15,2013-02-11 09:30:00,
2013-02-11 07:30:00,18.6,12.9,30.17,ESE,121,0.0,0.0,78,0.00,,,0.00,Wunderground v.1.15,2013-02-11 12:30:00,
2013-02-11 07:35:00,18.6,12.6,30.17,ESE,121,0.0,0.0,77,0.00,,,0.00,Wunderground v.1.15,2013-02-11 12:35:00,
2013-02-11 07:40:00,18.7,13.0,30.16,ESE,121,0.0,0.0,78,0.00,,,0.00,Wunderground v.1.15,2013-02-11 12:40:00,
2013-02-11 07:50:00,19.0,13.3,30.17,ESE,121,0.0,0.0,78,0.00,,,0.00,Wunderground v.1.15,2013-02-11 12:50:00,
2013-02-11 07:55:00,19.2,13.5,30.17,ESE,121,0.0,0.0,78,0.00,,,0.00,Wunderground v.1.15,2013-02-11 12:55:00,
2013-02-11 09:26:00,20.1,16.9,30.10,ESE,121,0.0,0.0,87,0.00,,,0.00,Wunderground v.1.15,2013-02-11 14:26:00,
2013-02-11 09:35:00,20.6,17.6,30.10,ESE,121,0.0,0.0,88,0.00,,,0.00,Wunderground v.1.15,2013-02-11 14:35:00,
2013-02-11 09:40:00,20.9,17.9,30.09,ESE,121,0.0,0.0,88,0.00,,,0.00,Wunderground v.1.15,2013-02-11 14:40:00,
2013-02-11 09:50:00,21.2,18.2,30.08,ESE,121,0.0,0.0,88,0.00,,,0.00,Wunderground v.1.15,2013-02-11 14:50:00,
2013-02-11 10:00:00,21.5,18.8,30.07,ESE,121,0.0,0.0,89,0.00,,,0.00,Wunderground v.1.15,2013-02-11 15:00:00,
2013-02-11 10:05:00,21.6,18.9,30.08,ESE,121,0.0,0.0,89,0.00,,,0.00,Wunderground v.1.15,2013-02-11 15:05:00,
2013-02-11 10:15:00,21.8,19.1,30.07,ESE,121,0.0,0.0,89,0.00,,,0.00,Wunderground v.1.15,2013-02-11 15:15:00,
2013-02-11 10:25:00,22.1,19.6,30.06,ESE,121,0.0,0.0,90,0.00,,,0.00,Wunderground v.1.15,2013-02-11 15:25:00,
2013-02-11 10:35:00,22.3,19.8,30.04,ESE,121,0.0,1.0,90,0.00,,,0.00,Wunderground v.1.15,2013-02-11 15:35:00,
2013-02-11 10:40:00,22.4,19.9,30.04,ESE,121,0.0,0.0,90,0.00,,,0.00,Wunderground v.1.15,2013-02-11 15:40:00,
2013-02-11 10:50:00,22.4,20.2,30.03,ESE,121,0.0,0.0,91,0.00,,,0.00,Wunderground v.1.15,2013-02-11 15:50:00,
2013-02-11 11:00:00,22.8,20.6,30.02,ESE,121,0.0,0.0,91,0.00,,,0.00,Wunderground v.1.15,2013-02-11 16:00:00,
2013-02-11 11:05:00,23.1,20.9,30.01,ESE,121,0.0,0.0,91,0.00,,,0.00,Wunderground v.1.15,2013-02-11 16:05:00,
2013-02-11 11:10:00,23.5,21.3,30.01,ESE,121,0.0,0.0,91,0.00,,,0.00,Wunderground v.1.15,2013-02-11 16:10:00,
2013-02-11 11:20:00,23.7,21.5,30.00,ESE,121,0.0,0.0,91,0.00,,,0.00,Wunderground v.1.15,2013-02-11 16:20:00,
2013-02-11 11:30:00,24.0,22.0,29.98,ESE,121,0.0,0.0,92,0.00,,,0.00,Wunderground v.1.15,2013-02-11 16:30:00,
2013-02-11 11:55:00,25.7,24.0,29.94,ESE,121,0.0,0.0,93,0.00,,,0.00,Wunderground v.1.15,2013-02-11 16:55:00,
2013-02-11 12:05:00,26.3,24.6,29.93,ESE,121,0.0,0.0,93,0.00,,,0.00,Wunderground v.1.15,2013-02-11 17:05:00,
2013-02-11 12:15:00,26.7,24.9,29.92,ESE,121,0.0,0.0,93,0.00,,,0.00,Wunderground v.1.15,2013-02-11 17:15:00,
2013-02-11 12:25:00,27.2,25.4,29.91,ESE,121,0.0,0.0,93,0.00,,,0.00,Wunderground v.1.15,2013-02-11 17:25:00,
2013-02-11 12:30:00,27.4,25.9,29.90,ESE,121,0.0,0.0,94,0.00,,,0.00,Wunderground v.1.15,2013-02-11 17:30:00,
2013-02-11 12:35:00,27.6,26.1,29.89,ESE,121,0.0,0.0,94,0.00,,,0.00,Wunderground v.1.15,2013-02-11 17:35:00,
2013-02-11 12:40:00,27.8,26.3,29.89,ESE,121,0.0,0.0,94,0.00,,,0.00,Wunderground v.1.15,2013-02-11 17:40:00,
2013-02-11 12:50:00,28.0,26.5,29.88,ESE,121,0.0,0.0,94,0.00,,,0.00,Wunderground v.1.15,2013-02-11 17:50:00,
2013-02-11 12:55:00,28.2,26.7,29.87,ESE,121,0.0,0.0,94,0.00,,,0.00,Wunderground v.1.15,2013-02-11 17:55:00,
2013-02-11 13:05:00,28.6,27.1,29.85,ESE,121,0.0,3.0,94,0.00,,,0.00,Wunderground v.1.15,2013-02-11 18:05:00,
2013-02-11 13:10:00,28.7,27.2,29.85,ESE,121,0.0,0.0,94,0.00,,,0.00,Wunderground v.1.15,2013-02-11 18:10:00,
2013-02-11 13:15:00,28.8,27.3,29.84,ESE,121,0.0,0.0,94,0.00,,,0.00,Wunderground v.1.15,2013-02-11 18:15:00,
2013-02-11 13:25:00,29.1,27.8,29.84,ESE,121,0.0,0.0,95,0.00,,,0.00,Wunderground v.1.15,2013-02-11 18:25:00,
2013-02-11 13:30:00,29.4,27.9,29.83,ESE,121,0.0,0.0,94,0.00,,,0.00,Wunderground v.1.15,2013-02-11 18:30:00,
2013-02-11 13:40:00,29.5,28.2,29.82,ESE,121,0.0,0.0,95,0.00,,,0.00,Wunderground v.1.15,2013-02-11 18:40:00,
2013-02-11 13:50:00,29.8,28.5,29.81,ESE,121,0.0,0.0,95,0.00,,,0.00,Wunderground v.1.15,2013-02-11 18:50:00,
2013-02-11 13:55:00,30.1,28.8,29.81,ESE,121,0.0,0.0,95,0.00,,,0.00,Wunderground v.1.15,2013-02-11 18:55:00,
2013-02-11 14:05:00,30.3,29.0,29.81,ESE,121,0.0,0.0,95,0.00,,,0.00,Wunderground v.1.15,2013-02-11 19:05:00,
2013-02-11 14:15:00,30.6,29.3,29.81,ESE,121,0.0,0.0,95,0.00,,,0.00,Wunderground v.1.15,2013-02-11 19:15:00,
2013-02-11 14:25:00,30.8,29.5,29.80,SSE,149,0.0,0.0,95,0.00,,,0.00,Wunderground v.1.15,2013-02-11 19:25:00,
2013-02-11 14:35:00,30.7,29.4,29.79,SSE,149,0.0,0.0,95,0.00,,,0.00,Wunderground v.1.15,2013-02-11 19:35:00,
2013-02-11 14:45:00,30.4,29.1,29.79,SSE,149,0.0,0.0,95,0.00,,,0.00,Wunderground v.1.15,2013-02-11 19:45:00,
2013-02-11 14:55:00,30.2,28.9,29.79,SSE,149,0.0,0.0,95,0.00,,,0.00,Wunderground v.1.15,2013-02-11 19:55:00,
2013-02-11 15:05:00,30.1,28.8,29.77,SSE,149,0.0,0.0,95,0.00,,,0.00,Wunderground v.1.15,2013-02-11 20:05:00,
2013-02-11 15:15:00,30.2,28.9,29.77,SSE,149,0.0,0.0,95,0.00,,,0.00,Wunderground v.1.15,2013-02-11 20:15:00,
2013-02-11 15:20:00,30.2,28.9,29.78,SSE,149,0.0,0.0,95,0.00,,,0.00,Wunderground v.1.15,2013-02-11 20:20:00,
2013-02-11 15:30:00,30.2,28.9,29.76,SSE,149,0.0,0.0,95,0.00,,,0.00,Wunderground v.1.15,2013-02-11 20:30:00,
2013-02-11 15:40:00,30.4,29.1,29.75,SSE,149,0.0,0.0,95,0.00,,,0.00,Wunderground v.1.15,2013-02-11 20:40:00,
2013-02-11 15:45:00,30.6,29.6,29.73,SSE,149,0.0,0.0,96,0.00,,,0.00,Wunderground v.1.15,2013-02-11 20:45:00,
2013-02-11 15:50:00,30.8,29.8,29.72,SSE,149,0.0,0.0,96,0.00,,,0.00,Wunderground v.1.15,2013-02-11 20:50:00,
2013-02-11 16:00:00,31.0,30.0,29.73,SSE,149,0.0,0.0,96,0.00,,,0.00,Wunderground v.1.15,2013-02-11 21:00:00,
2013-02-11 16:10:00,31.0,30.0,29.72,SSE,149,0.0,0.0,96,0.00,,,0.00,Wunderground v.1.15,2013-02-11 21:10:00,
2013-02-11 16:20:00,31.1,30.1,29.72,SSE,149,0.0,0.0,96,0.00,,,0.00,Wunderground v.1.15,2013-02-11 21:20:00,
2013-02-11 16:30:00,31.0,30.0,29.70,SSE,149,0.0,0.0,96,0.00,,,0.00,Wunderground v.1.15,2013-02-11 21:30:00,
2013-02-11 16:40:00,31.1,30.1,29.70,SSE,149,0.0,0.0,96,0.00,,,0.00,Wunderground v.1.15,2013-02-11 21:40:00,
2013-02-11 16:45:00,31.0,30.0,29.70,SSE,149,0.0,0.0,96,0.00,,,0.00,Wunderground v.1.15,2013-02-11 21:45:00,
2013-02-11 16:55:00,30.9,29.9,29.70,SSE,149,0.0,0.0,96,0.00,,,0.00,Wunderground v.1.15,2013-02-11 21:55:00,
2013-02-11 17:05:00,30.8,29.8,29.70,SSE,149,0.0,0.0,96,0.00,,,0.00,Wunderground v.1.15,2013-02-11 22:05:00,
2013-02-11 17:10:00,30.8,29.8,29.69,SSE,149,0.0,0.0,96,0.00,,,0.00,Wunderground v.1.15,2013-02-11 22:10:00,
2013-02-11 17:20:00,30.6,29.6,29.68,SSE,149,0.0,0.0,96,0.00,,,0.00,Wunderground v.1.15,2013-02-11 22:20:00,
2013-02-11 17:30:00,30.4,29.4,29.68,SSE,149,0.0,0.0,96,0.00,,,0.00,Wunderground v.1.15,2013-02-11 22:30:00,
2013-02-11 17:35:00,30.2,29.2,29.68,SSE,149,0.0,0.0,96,0.00,,,0.00,Wunderground v.1.15,2013-02-11 22:35:00,
2013-02-11 17:45:00,30.1,29.1,29.68,SSE,149,0.0,0.0,96,0.00,,,0.00,Wunderground v.1.15,2013-02-11 22:45:00,
2013-02-11 17:55:00,30.0,29.0,29.69,SSE,149,0.0,0.0,96,0.00,,,0.00,Wunderground v.1.15,2013-02-11 22:55:00,
2013-02-11 18:00:00,29.9,28.9,29.68,SSE,149,0.0,0.0,96,0.00,,,0.00,Wunderground v.1.15,2013-02-11 23:00:00,
2013-02-11 18:10:00,29.6,28.6,29.68,SSE,149,0.0,0.0,96,0.00,,,0.00,Wunderground v.1.15,2013-02-11 23:10:00,
2013-02-11 18:20:00,29.2,28.2,29.69,SSE,149,0.0,0.0,96,0.00,,,0.00,Wunderground v.1.15,2013-02-11 23:20:00,
2013-02-11 18:25:00,29.0,28.0,29.69,SSE,149,0.0,0.0,96,0.00,,,0.00,Wunderground v.1.15,2013-02-11 23:25:00,
2013-02-11 18:35:00,28.6,27.6,29.68,SE,145,0.0,0.0,96,0.00,,,0.00,Wunderground v.1.15,2013-02-11 23:35:00,
2013-02-11 18:45:00,28.6,27.6,29.67,SE,145,0.0,0.0,96,0.00,,,0.00,Wunderground v.1.15,2013-02-11 23:45:00,
2013-02-11 18:55:00,28.5,27.5,29.67,SE,145,0.0,0.0,96,0.00,,,0.00,Wunderground v.1.15,2013-02-11 23:55:00,
2013-02-11 19:05:00,28.5,27.5,29.66,SE,145,0.0,0.0,96,0.00,,,0.00,Wunderground v.1.15,2013-02-12 00:05:00,
2013-02-11 19:15:00,28.6,27.6,29.66,SE,145,0.0,0.0,96,0.00,,,0.00,Wunderground v.1.15,2013-02-12 00:15:00,
2013-02-11 19:25:00,28.7,27.7,29.66,SE,145,0.0,0.0,96,0.00,,,0.00,Wunderground v.1.15,2013-02-12 00:25:00,
2013-02-11 19:30:00,28.7,27.7,29.66,SE,145,0.0,0.0,96,0.00,,,0.00,Wunderground v.1.15,2013-02-12 00:30:00,
2013-02-11 19:40:00,28.8,27.8,29.64,SE,145,0.0,0.0,96,0.00,,,0.00,Wunderground v.1.15,2013-02-12 00:40:00,
2013-02-11 19:50:00,28.9,27.9,29.64,SE,145,0.0,0.0,96,0.00,,,0.00,Wunderground v.1.15,2013-02-12 00:50:00,
2013-02-11 20:00:00,28.9,27.9,29.63,SE,145,0.0,0.0,96,0.00,,,0.00,Wunderground v.1.15,2013-02-12 01:00:00,
2013-02-11 20:10:00,29.0,28.0,29.63,SE,145,0.0,0.0,96,0.00,,,0.00,Wunderground v.1.15,2013-02-12 01:10:00,
2013-02-11 20:20:00,29.1,28.1,29.62,SE,145,0.0,0.0,96,0.00,,,0.00,Wunderground v.1.15,2013-02-12 01:20:00,
2013-02-11 21:45:00,29.4,28.4,29.61,SE,146,0.0,0.0,96,0.00,,,0.00,Wunderground v.1.15,2013-02-12 02:45:00,
2013-02-11 21:55:00,29.6,28.6,29.60,SE,145,0.0,0.0,96,0.00,,,0.00,Wunderground v.1.15,2013-02-12 02:55:00,
2013-02-11 22:00:00,29.6,28.9,29.60,SE,145,0.0,0.0,97,0.00,,,0.00,Wunderground v.1.15,2013-02-12 03:00:00,
2013-02-11 22:10:00,29.6,28.6,29.59,SE,146,0.0,0.0,96,0.00,,,0.00,Wunderground v.1.15,2013-02-12 03:10:00,
2013-02-11 22:20:00,29.4,28.4,29.60,SE,146,0.0,0.0,96,0.00,,,0.00,Wunderground v.1.15,2013-02-12 03:20:00,
2013-02-11 22:25:00,29.3,28.3,29.59,SE,145,0.0,0.0,96,0.00,,,0.00,Wunderground v.1.15,2013-02-12 03:25:00,
2013-02-11 22:35:00,29.2,28.5,29.59,SE,145,0.0,0.0,97,0.00,,,0.00,Wunderground v.1.15,2013-02-12 03:35:00,
2013-02-11 22:45:00,29.2,28.5,29.59,SE,146,0.0,0.0,97,0.00,,,0.00,Wunderground v.1.15,2013-02-12 03:45:00,
2013-02-11 22:55:00,29.2,28.5,29.60,SE,145,0.0,0.0,97,0.00,,,0.00,Wunderground v.1.15,2013-02-12 03:55:00,
2013-02-11 23:05:00,29.4,28.7,29.59,SE,145,0.0,0.0,97,0.00,,,0.00,Wunderground v.1.15,2013-02-12 04:05:00,
2013-02-11 23:15:00,29.6,28.9,29.59,SE,145,0.0,0.0,97,0.00,,,0.00,Wunderground v.1.15,2013-02-12 04:15:00,
2013-02-11 23:25:00,31.6,30.8,29.59,East,101,0.0,0.0,97,0.00,,,0.00,Wunderground v.1.15,2013-02-12 04:25:00,
2013-02-11 23:35:00,33.0,32.2,29.59,SSW,193,0.0,0.0,97,0.00,,,0.00,Wunderground v.1.15,2013-02-12 04:35:00,
2013-02-11 23:45:00,33.7,32.9,29.59,WSW,245,0.0,1.0,97,0.00,,,0.00,Wunderground v.1.15,2013-02-12 04:45:00,
2013-02-11 23:55:00,34.0,33.5,29.59,SE,134,0.0,0.0,98,0.00,,,0.00,Wunderground v.1.15,2013-02-12 04:55:00,